Wichita Mid Continent Airport
KICT : now visible

Airfield :











YOU CAN JOIN US ON...

 
LOGIN :

Register | Disclaimer

   EN    FR    IT 

 









Legend :    VFR   Marginal VFR   IFR   Intensive IFR   Very Intensive IFR
Visi :
Ceiling :
>= 8 km
>= 3000ft
5 to 8 km
1000 to 3000 ft
1500m to 5 km
500 to 1000 ft
800 to 1500m
200 to 500 ft
< 800m
< 200 ft
Symbols :   Thunderstorms  Fog  Heavy snow  Heavy precipitations  Wind > 20 kt






- Airport Elevation : 1333 ft
- IATA code : ICT


KICT - Wichita Mid Continent

CURRENT METAR :
  • 030853Z 13008KT 10SM FEW010 23/22 A2999 RMK AO2 SLP138 OCNL LTGICCG DSNT E T02280217 58005

EXPIRED METARs :
  • 030753Z 11009KT 10SM SCT010 23/22 A2999 RMK AO2 LTG DSNT E SLP140 T02330217
  • 030653Z 11008KT 10SM SCT065 SCT110 24/22 A3000 RMK AO2 SLP141 T02390217

TAF KICT
Valid from the 03 at 06:00 until the 04 at 06:00 UTC


030520Z 0306/0406 10009KT P6SM VCTS BKN070CB
FM031000 13007KT P6SM VCTS SCT015 BKN070CB
FM031500 16012G19KT P6SM SCT100
KZKC FIR / North America



MET'MAP, your aeronautical weather chart ! - Copyright ORBIFLY December 2007 - Disclaimer

ORBIFLY MET'MAP TEAM :

Programming & Development : Alexandra Zaïnal
Original concept : Baudouin d'Aumeries
Technical & hardware support : Manuel Goepfert
Assistance : Marc-Olivier Méhu




SOURCES & CREDITS :

   NOAA       Earth
Advisory